PWSweather.com
Personal Weather Stations
Station Observations
K7AZM
Phoenix, AZ 85050

Phoenix, AZ 85050

Lat: 33.662, Lon: -112.019

Elevation: 1500

Station Type: Davis Vantage Vue

http://www.silhanek.com/weather

High Low Average
Temperature 69.2°F20.7°C 35.9°F2.2°C 51.1°F10.6°C
Dew Point 46.6°F8.1°C 16.3°F-8.7°C 27.6°F-2.4°C
Winds 6.9 mph 11.1 kmh Calm Calm 1.0 mph S1.6 kmh S
Wind Gusts 16.0 mph25.7 kmh -- 3.0 mph4.8 kmh
Humidity 92% 17% 46%
Pressure 30.04 in1017.3 mb 29.85 in1010.8 mb -
Precipitation 0.34 in8.6 mm - -
Hour Temp Dew Point Humidity Winds Wind Gusts Pressure Precip Precip Rate Daily Precip Total
12:00 AM 44.6°F7.0°C 17.3°F-8.2°C 33% Calm Calm 1.0 mph1.6 kmh 29.95 in1014.2 mb 0.00 in0.0 mm 0.00 in0.0 mm 0.00 in0.0 mm
12:05 AM 44.3°F6.8°C 17.0°F-8.3°C 33% 0.3 mph N0.5 kmh N 1.0 mph1.6 kmh 29.95 in1014.2 mb 0.00 in0.0 mm 0.00 in0.0 mm 0.00 in0.0 mm
12:10 AM 44.1°F6.7°C 16.9°F-8.4°C 33% Calm Calm 1.0 mph1.6 kmh 29.95 in1014.2 mb 0.00 in0.0 mm 0.00 in0.0 mm 0.00 in0.0 mm
12:15 AM 43.8°F6.6°C 17.3°F-8.2°C 34% Calm Calm 1.0 mph1.6 kmh 29.95 in1014.2 mb 0.00 in0.0 mm 0.00 in0.0 mm 0.00 in0.0 mm
12:20 AM 43.7°F6.5°C 17.2°F-8.2°C 34% 0.1 mph N0.2 kmh N 1.0 mph1.6 kmh 29.95 in1014.2 mb 0.00 in0.0 mm 0.00 in0.0 mm 0.00 in0.0 mm
12:25 AM 43.7°F6.5°C 17.2°F-8.2°C 34% 0.1 mph N0.2 kmh N 1.0 mph1.6 kmh 29.95 in1014.2 mb 0.00 in0.0 mm 0.00 in0.0 mm 0.00 in0.0 mm
12:30 AM 43.7°F6.5°C 17.2°F-8.2°C 34% 0.1 mph N0.2 kmh N 1.0 mph1.6 kmh 29.95 in1014.2 mb 0.00 in0.0 mm 0.00 in0.0 mm 0.00 in0.0 mm
12:35 AM 43.6°F6.4°C 17.8°F-7.9°C 35% 0.1 mph N0.2 kmh N 1.0 mph1.6 kmh 29.95 in1014.2 mb 0.00 in0.0 mm 0.00 in0.0 mm 0.00 in0.0 mm
12:40 AM 43.5°F6.4°C 17.7°F-7.9°C 35% Calm Calm 1.0 mph1.6 kmh 29.95 in1014.2 mb 0.00 in0.0 mm 0.00 in0.0 mm 0.00 in0.0 mm
12:45 AM 43.4°F6.3°C 17.6°F-8.0°C 35% 0.2 mph N0.3 kmh N 2.0 mph3.2 kmh 29.95 in1014.2 mb 0.00 in0.0 mm 0.00 in0.0 mm 0.00 in0.0 mm
12:50 AM 43.5°F6.4°C 17.7°F-7.9°C 35% 0.3 mph NNE0.5 kmh NNE 2.0 mph3.2 kmh 29.95 in1014.2 mb 0.00 in0.0 mm 0.00 in0.0 mm 0.00 in0.0 mm
12:55 AM 43.5°F6.4°C 17.7°F-7.9°C 35% 0.5 mph N0.8 kmh N 2.0 mph3.2 kmh 29.95 in1014.2 mb 0.00 in0.0 mm 0.00 in0.0 mm 0.00 in0.0 mm
01:00 AM 43.5°F6.4°C 17.7°F-7.9°C 35% 0.2 mph N0.3 kmh N 2.0 mph3.2 kmh 29.95 in1014.2 mb 0.00 in0.0 mm 0.00 in0.0 mm 0.00 in0.0 mm
01:05 AM 43.4°F6.3°C 17.6°F-8.0°C 35% Calm Calm 2.0 mph3.2 kmh 29.95 in1014.2 mb 0.00 in0.0 mm 0.00 in0.0 mm 0.00 in0.0 mm
01:10 AM 43.3°F6.3°C 17.5°F-8.1°C 35% Calm Calm 1.0 mph1.6 kmh 29.94 in1013.9 mb 0.00 in0.0 mm 0.00 in0.0 mm 0.00 in0.0 mm
01:15 AM 43.1°F6.2°C 17.3°F-8.2°C 35% Calm Calm -- 29.94 in1013.9 mb 0.00 in0.0 mm 0.00 in0.0 mm 0.00 in0.0 mm
01:20 AM 42.7°F5.9°C 17.6°F-8.0°C 36% Calm Calm -- 29.94 in1013.9 mb 0.00 in0.0 mm 0.00 in0.0 mm 0.00 in0.0 mm
01:25 AM 42.5°F5.8°C 17.4°F-8.1°C 36% 0.1 mph N0.2 kmh N 1.0 mph1.6 kmh 29.94 in1013.9 mb 0.00 in0.0 mm 0.00 in0.0 mm 0.00 in0.0 mm
01:30 AM 42.5°F5.8°C 16.8°F-8.4°C 35% 0.1 mph N0.2 kmh N 1.0 mph1.6 kmh 29.94 in1013.9 mb 0.00 in0.0 mm 0.00 in0.0 mm 0.00 in0.0 mm
01:35 AM 42.9°F6.1°C 17.2°F-8.2°C 35% 0.1 mph N0.2 kmh N 1.0 mph1.6 kmh 29.94 in1013.9 mb 0.00 in0.0 mm 0.00 in0.0 mm 0.00 in0.0 mm
01:40 AM 42.9°F6.1°C 17.2°F-8.2°C 35% Calm Calm 1.0 mph1.6 kmh 29.94 in1013.9 mb 0.00 in0.0 mm 0.00 in0.0 mm 0.00 in0.0 mm
01:45 AM 42.6°F5.9°C 16.9°F-8.4°C 35% Calm Calm 1.0 mph1.6 kmh 29.93 in1013.5 mb 0.00 in0.0 mm 0.00 in0.0 mm 0.00 in0.0 mm
01:50 AM 42.4°F5.8°C 16.7°F-8.5°C 35% Calm Calm 1.0 mph1.6 kmh 29.93 in1013.5 mb 0.00 in0.0 mm 0.00 in0.0 mm 0.00 in0.0 mm
01:55 AM 42.0°F5.6°C 17.0°F-8.3°C 36% Calm Calm 1.0 mph1.6 kmh 29.93 in1013.5 mb 0.00 in0.0 mm 0.00 in0.0 mm 0.00 in0.0 mm
02:00 AM 41.9°F5.5°C 16.9°F-8.4°C 36% 0.1 mph N0.2 kmh N 1.0 mph1.6 kmh 29.93 in1013.5 mb 0.00 in0.0 mm 0.00 in0.0 mm 0.00 in0.0 mm
02:05 AM 41.9°F5.5°C 16.9°F-8.4°C 36% Calm Calm 1.0 mph1.6 kmh 29.93 in1013.5 mb 0.00 in0.0 mm 0.00 in0.0 mm 0.00 in0.0 mm
02:10 AM 41.8°F5.4°C 16.8°F-8.4°C 36% Calm Calm 1.0 mph1.6 kmh 29.94 in1013.9 mb 0.00 in0.0 mm 0.00 in0.0 mm 0.00 in0.0 mm
02:15 AM 41.8°F5.4°C 16.8°F-8.4°C 36% Calm Calm 1.0 mph1.6 kmh 29.93 in1013.5 mb 0.00 in0.0 mm 0.00 in0.0 mm 0.00 in0.0 mm
02:20 AM 41.7°F5.4°C 16.7°F-8.5°C 36% Calm Calm 1.0 mph1.6 kmh 29.93 in1013.5 mb 0.00 in0.0 mm 0.00 in0.0 mm 0.00 in0.0 mm
02:25 AM 41.5°F5.3°C 17.2°F-8.2°C 37% 0.1 mph NNE0.2 kmh NNE 1.0 mph1.6 kmh 29.93 in1013.5 mb 0.00 in0.0 mm 0.00 in0.0 mm 0.00 in0.0 mm
02:30 AM 41.2°F5.1°C 16.9°F-8.4°C 37% Calm Calm 1.0 mph1.6 kmh 29.93 in1013.5 mb 0.00 in0.0 mm 0.00 in0.0 mm 0.00 in0.0 mm
02:35 AM 40.7°F4.8°C 17.1°F-8.3°C 38% Calm Calm -- 29.93 in1013.5 mb 0.00 in0.0 mm 0.00 in0.0 mm 0.00 in0.0 mm
02:40 AM 40.5°F4.7°C 16.9°F-8.4°C 38% Calm Calm 1.0 mph1.6 kmh 29.93 in1013.5 mb 0.00 in0.0 mm 0.00 in0.0 mm 0.00 in0.0 mm
02:45 AM 40.7°F4.8°C 17.1°F-8.3°C 38% 0.1 mph NNE0.2 kmh NNE 1.0 mph1.6 kmh 29.92 in1013.2 mb 0.00 in0.0 mm 0.00 in0.0 mm 0.00 in0.0 mm
02:50 AM 40.7°F4.8°C 17.1°F-8.3°C 38% 0.1 mph NNE0.2 kmh NNE 1.0 mph1.6 kmh 29.92 in1013.2 mb 0.00 in0.0 mm 0.00 in0.0 mm 0.00 in0.0 mm
02:55 AM 40.4°F4.7°C 17.4°F-8.1°C 39% Calm Calm 1.0 mph1.6 kmh 29.92 in1013.2 mb 0.00 in0.0 mm 0.00 in0.0 mm 0.00 in0.0 mm
03:00 AM 39.9°F4.4°C 17.6°F-8.0°C 40% Calm Calm -- 29.92 in1013.2 mb 0.00 in0.0 mm 0.00 in0.0 mm 0.00 in0.0 mm
03:05 AM 39.4°F4.1°C 17.7°F-7.9°C 41% Calm Calm -- 29.92 in1013.2 mb 0.00 in0.0 mm 0.00 in0.0 mm 0.00 in0.0 mm
03:10 AM 39.2°F4.0°C 17.5°F-8.1°C 41% Calm Calm 1.0 mph1.6 kmh 29.91 in1012.9 mb 0.00 in0.0 mm 0.00 in0.0 mm 0.00 in0.0 mm
03:15 AM 39.2°F4.0°C 17.5°F-8.1°C 41% Calm Calm 1.0 mph1.6 kmh 29.91 in1012.9 mb 0.00 in0.0 mm 0.00 in0.0 mm 0.00 in0.0 mm
03:20 AM 39.1°F3.9°C 17.4°F-8.1°C 41% Calm Calm 1.0 mph1.6 kmh 29.91 in1012.9 mb 0.00 in0.0 mm 0.00 in0.0 mm 0.00 in0.0 mm
03:25 AM 39.3°F4.1°C 17.6°F-8.0°C 41% Calm Calm 1.0 mph1.6 kmh 29.92 in1013.2 mb 0.00 in0.0 mm 0.00 in0.0 mm 0.00 in0.0 mm
03:30 AM 39.5°F4.2°C 17.8°F-7.9°C 41% Calm Calm 1.0 mph1.6 kmh 29.91 in1012.9 mb 0.00 in0.0 mm 0.00 in0.0 mm 0.00 in0.0 mm
03:35 AM 39.5°F4.2°C 17.2°F-8.2°C 40% Calm Calm 1.0 mph1.6 kmh 29.91 in1012.9 mb 0.00 in0.0 mm 0.00 in0.0 mm 0.00 in0.0 mm
03:40 AM 39.5°F4.2°C 17.2°F-8.2°C 40% Calm Calm 1.0 mph1.6 kmh 29.91 in1012.9 mb 0.00 in0.0 mm 0.00 in0.0 mm 0.00 in0.0 mm
03:45 AM 39.1°F3.9°C 17.4°F-8.1°C 41% Calm Calm 1.0 mph1.6 kmh 29.91 in1012.9 mb 0.00 in0.0 mm 0.00 in0.0 mm 0.00 in0.0 mm
03:50 AM 38.9°F3.8°C 16.7°F-8.5°C 40% 0.1 mph N0.2 kmh N 1.0 mph1.6 kmh 29.91 in1012.9 mb 0.00 in0.0 mm 0.00 in0.0 mm 0.00 in0.0 mm
03:55 AM 39.3°F4.1°C 17.0°F-8.3°C 40% Calm Calm 1.0 mph1.6 kmh 29.91 in1012.9 mb 0.00 in0.0 mm 0.00 in0.0 mm 0.00 in0.0 mm
04:00 AM 39.6°F4.2°C 16.7°F-8.5°C 39% 0.1 mph NNE0.2 kmh NNE 1.0 mph1.6 kmh 29.90 in1012.5 mb 0.00 in0.0 mm 0.00 in0.0 mm 0.00 in0.0 mm
04:05 AM 39.7°F4.3°C 16.8°F-8.4°C 39% 0.4 mph N0.6 kmh N 2.0 mph3.2 kmh 29.91 in1012.9 mb 0.00 in0.0 mm 0.00 in0.0 mm 0.00 in0.0 mm
04:10 AM 39.9°F4.4°C 16.4°F-8.7°C 38% 0.3 mph N0.5 kmh N 2.0 mph3.2 kmh 29.90 in1012.5 mb 0.00 in0.0 mm 0.00 in0.0 mm 0.00 in0.0 mm
04:15 AM 40.0°F4.4°C 16.5°F-8.6°C 38% 0.2 mph NNW0.3 kmh NNW 1.0 mph1.6 kmh 29.91 in1012.9 mb 0.00 in0.0 mm 0.00 in0.0 mm 0.00 in0.0 mm
04:20 AM 39.9°F4.4°C 16.4°F-8.7°C 38% Calm Calm 1.0 mph1.6 kmh 29.91 in1012.9 mb 0.00 in0.0 mm 0.00 in0.0 mm 0.00 in0.0 mm
04:25 AM 39.6°F4.2°C 16.7°F-8.5°C 39% Calm Calm 1.0 mph1.6 kmh 29.90 in1012.5 mb 0.00 in0.0 mm 0.00 in0.0 mm 0.00 in0.0 mm
04:30 AM 39.2°F4.0°C 16.3°F-8.7°C 39% Calm Calm -- 29.90 in1012.5 mb 0.00 in0.0 mm 0.00 in0.0 mm 0.00 in0.0 mm
04:35 AM 38.9°F3.8°C 16.7°F-8.5°C 40% Calm Calm 1.0 mph1.6 kmh 29.90 in1012.5 mb 0.00 in0.0 mm 0.00 in0.0 mm 0.00 in0.0 mm
04:40 AM 38.6°F3.7°C 16.4°F-8.7°C 40% Calm Calm 1.0 mph1.6 kmh 29.90 in1012.5 mb 0.00 in0.0 mm 0.00 in0.0 mm 0.00 in0.0 mm
04:45 AM 38.4°F3.6°C 16.8°F-8.4°C 41% Calm Calm -- 29.90 in1012.5 mb 0.00 in0.0 mm 0.00 in0.0 mm 0.00 in0.0 mm
04:50 AM 38.2°F3.4°C 16.6°F-8.6°C 41% Calm Calm 1.0 mph1.6 kmh 29.90 in1012.5 mb 0.00 in0.0 mm 0.00 in0.0 mm 0.00 in0.0 mm
04:55 AM 38.1°F3.4°C 17.1°F-8.3°C 42% Calm Calm 1.0 mph1.6 kmh 29.90 in1012.5 mb 0.00 in0.0 mm 0.00 in0.0 mm 0.00 in0.0 mm
05:00 AM 37.7°F3.2°C 16.7°F-8.5°C 42% Calm Calm -- 29.90 in1012.5 mb 0.00 in0.0 mm 0.00 in0.0 mm 0.00 in0.0 mm
05:05 AM 37.1°F2.8°C 17.2°F-8.2°C 44% Calm Calm -- 29.90 in1012.5 mb 0.00 in0.0 mm 0.00 in0.0 mm 0.00 in0.0 mm
05:10 AM 37.1°F2.8°C 17.2°F-8.2°C 44% Calm Calm 1.0 mph1.6 kmh 29.90 in1012.5 mb 0.00 in0.0 mm 0.00 in0.0 mm 0.00 in0.0 mm
05:15 AM 37.2°F2.9°C 17.3°F-8.2°C 44% Calm Calm 1.0 mph1.6 kmh 29.90 in1012.5 mb 0.00 in0.0 mm 0.00 in0.0 mm 0.00 in0.0 mm
05:20 AM 37.1°F2.8°C 17.7°F-7.9°C 45% Calm Calm 1.0 mph1.6 kmh 29.90 in1012.5 mb 0.00 in0.0 mm 0.00 in0.0 mm 0.00 in0.0 mm
05:25 AM 36.9°F2.7°C 17.6°F-8.0°C 45% Calm Calm -- 29.90 in1012.5 mb 0.00 in0.0 mm 0.00 in0.0 mm 0.00 in0.0 mm
05:30 AM 36.5°F2.5°C 17.7°F-7.9°C 46% Calm Calm -- 29.91 in1012.9 mb 0.00 in0.0 mm 0.00 in0.0 mm 0.00 in0.0 mm
05:35 AM 36.2°F2.3°C 17.9°F-7.8°C 47% Calm Calm -- 29.91 in1012.9 mb 0.00 in0.0 mm 0.00 in0.0 mm 0.00 in0.0 mm
05:40 AM 35.9°F2.2°C 17.2°F-8.2°C 46% Calm Calm 1.0 mph1.6 kmh 29.91 in1012.9 mb 0.00 in0.0 mm 0.00 in0.0 mm 0.00 in0.0 mm
05:45 AM 36.4°F2.4°C 17.6°F-8.0°C 46% 0.1 mph N0.2 kmh N 1.0 mph1.6 kmh 29.91 in1012.9 mb 0.00 in0.0 mm 0.00 in0.0 mm 0.00 in0.0 mm
05:50 AM 37.3°F2.9°C 17.9°F-7.8°C 45% Calm Calm 1.0 mph1.6 kmh 29.91 in1012.9 mb 0.00 in0.0 mm 0.00 in0.0 mm 0.00 in0.0 mm
05:55 AM 37.6°F3.1°C 17.7°F-7.9°C 44% Calm Calm 1.0 mph1.6 kmh 29.91 in1012.9 mb 0.00 in0.0 mm 0.00 in0.0 mm 0.00 in0.0 mm
06:00 AM 37.8°F3.2°C 17.9°F-7.8°C 44% Calm Calm -- 29.91 in1012.9 mb 0.00 in0.0 mm 0.00 in0.0 mm 0.00 in0.0 mm
06:05 AM 37.6°F3.1°C 17.7°F-7.9°C 44% Calm Calm -- 29.91 in1012.9 mb 0.00 in0.0 mm 0.00 in0.0 mm 0.00 in0.0 mm
06:10 AM 37.4°F3.0°C 18.0°F-7.8°C 45% Calm Calm 1.0 mph1.6 kmh 29.91 in1012.9 mb 0.00 in0.0 mm 0.00 in0.0 mm 0.00 in0.0 mm
06:15 AM 37.3°F2.9°C 17.9°F-7.8°C 45% Calm Calm 1.0 mph1.6 kmh 29.91 in1012.9 mb 0.00 in0.0 mm 0.00 in0.0 mm 0.00 in0.0 mm
06:20 AM 37.0°F2.8°C 17.7°F-7.9°C 45% Calm Calm 1.0 mph1.6 kmh 29.92 in1013.2 mb 0.00 in0.0 mm 0.00 in0.0 mm 0.00 in0.0 mm
06:25 AM 37.1°F2.8°C 17.7°F-7.9°C 45% Calm Calm 1.0 mph1.6 kmh 29.92 in1013.2 mb 0.00 in0.0 mm 0.00 in0.0 mm 0.00 in0.0 mm
06:30 AM 36.8°F2.7°C 17.5°F-8.1°C 45% Calm Calm -- 29.92 in1013.2 mb 0.00 in0.0 mm 0.00 in0.0 mm 0.00 in0.0 mm
06:35 AM 36.6°F2.6°C 17.3°F-8.2°C 45% Calm Calm -- 29.92 in1013.2 mb 0.00 in0.0 mm 0.00 in0.0 mm 0.00 in0.0 mm
06:40 AM 36.4°F2.4°C 17.1°F-8.3°C 45% Calm Calm 1.0 mph1.6 kmh 29.92 in1013.2 mb 0.00 in0.0 mm 0.00 in0.0 mm 0.00 in0.0 mm
06:45 AM 36.7°F2.6°C 17.4°F-8.1°C 45% 0.2 mph N0.3 kmh N 1.0 mph1.6 kmh 29.92 in1013.2 mb 0.00 in0.0 mm 0.00 in0.0 mm 0.00 in0.0 mm
06:50 AM 36.8°F2.7°C 17.5°F-8.1°C 45% Calm Calm 1.0 mph1.6 kmh 29.92 in1013.2 mb 0.00 in0.0 mm 0.00 in0.0 mm 0.00 in0.0 mm
06:55 AM 36.8°F2.7°C 17.5°F-8.1°C 45% Calm Calm 1.0 mph1.6 kmh 29.92 in1013.2 mb 0.00 in0.0 mm 0.00 in0.0 mm 0.00 in0.0 mm
07:00 AM 36.6°F2.6°C 17.3°F-8.2°C 45% Calm Calm 1.0 mph1.6 kmh 29.92 in1013.2 mb 0.00 in0.0 mm 0.00 in0.0 mm 0.00 in0.0 mm
07:05 AM 36.3°F2.4°C 17.0°F-8.3°C 45% Calm Calm 1.0 mph1.6 kmh 29.92 in1013.2 mb 0.00 in0.0 mm 0.00 in0.0 mm 0.00 in0.0 mm
07:10 AM 36.7°F2.6°C 16.9°F-8.4°C 44% 0.1 mph NNE0.2 kmh NNE 1.0 mph1.6 kmh 29.92 in1013.2 mb 0.00 in0.0 mm 0.00 in0.0 mm 0.00 in0.0 mm
07:15 AM 37.4°F3.0°C 17.5°F-8.1°C 44% Calm Calm 1.0 mph1.6 kmh 29.92 in1013.2 mb 0.00 in0.0 mm 0.00 in0.0 mm 0.00 in0.0 mm
07:20 AM 37.9°F3.3°C 17.4°F-8.1°C 43% Calm Calm 1.0 mph1.6 kmh 29.92 in1013.2 mb 0.00 in0.0 mm 0.00 in0.0 mm 0.00 in0.0 mm
07:25 AM 38.0°F3.3°C 17.5°F-8.1°C 43% Calm Calm 1.0 mph1.6 kmh 29.92 in1013.2 mb 0.00 in0.0 mm 0.00 in0.0 mm 0.00 in0.0 mm
07:30 AM 37.7°F3.2°C 17.2°F-8.2°C 43% Calm Calm -- 29.93 in1013.5 mb 0.00 in0.0 mm 0.00 in0.0 mm 0.00 in0.0 mm
07:35 AM 37.5°F3.1°C 17.1°F-8.3°C 43% Calm Calm 1.0 mph1.6 kmh 29.92 in1013.2 mb 0.00 in0.0 mm 0.00 in0.0 mm 0.00 in0.0 mm
07:40 AM 38.0°F3.3°C 17.5°F-8.1°C 43% Calm Calm 1.0 mph1.6 kmh 29.93 in1013.5 mb 0.00 in0.0 mm 0.00 in0.0 mm 0.00 in0.0 mm
07:45 AM 38.9°F3.8°C 17.8°F-7.9°C 42% 0.3 mph N0.5 kmh N 2.0 mph3.2 kmh 29.93 in1013.5 mb 0.00 in0.0 mm 0.00 in0.0 mm 0.00 in0.0 mm
07:50 AM 39.9°F4.4°C 18.1°F-7.7°C 41% 0.4 mph N0.6 kmh N 2.0 mph3.2 kmh 29.93 in1013.5 mb 0.00 in0.0 mm 0.00 in0.0 mm 0.00 in0.0 mm
07:55 AM 40.6°F4.8°C 18.2°F-7.7°C 40% 0.3 mph N0.5 kmh N 2.0 mph3.2 kmh 29.93 in1013.5 mb 0.00 in0.0 mm 0.00 in0.0 mm 0.00 in0.0 mm
08:00 AM 41.3°F5.2°C 18.2°F-7.7°C 39% 0.3 mph NW0.5 kmh NW 1.0 mph1.6 kmh 29.93 in1013.5 mb 0.00 in0.0 mm 0.00 in0.0 mm 0.00 in0.0 mm
08:05 AM 41.9°F5.5°C 18.8°F-7.3°C 39% Calm Calm 1.0 mph1.6 kmh 29.93 in1013.5 mb 0.00 in0.0 mm 0.00 in0.0 mm 0.00 in0.0 mm
08:10 AM 42.7°F5.9°C 18.9°F-7.3°C 38% 0.1 mph NW0.2 kmh NW 1.0 mph1.6 kmh 29.93 in1013.5 mb 0.00 in0.0 mm 0.00 in0.0 mm 0.00 in0.0 mm
08:15 AM 43.6°F6.4°C 19.7°F-6.8°C 38% Calm Calm 1.0 mph1.6 kmh 29.93 in1013.5 mb 0.00 in0.0 mm 0.00 in0.0 mm 0.00 in0.0 mm
08:20 AM 44.3°F6.8°C 19.7°F-6.8°C 37% Calm Calm -- 29.93 in1013.5 mb 0.00 in0.0 mm 0.00 in0.0 mm 0.00 in0.0 mm
08:25 AM 44.8°F7.1°C 20.1°F-6.6°C 37% Calm Calm -- 29.94 in1013.9 mb 0.00 in0.0 mm 0.00 in0.0 mm 0.00 in0.0 mm
08:30 AM 45.3°F7.4°C 20.6°F-6.3°C 37% Calm Calm -- 29.94 in1013.9 mb 0.00 in0.0 mm 0.00 in0.0 mm 0.00 in0.0 mm
08:35 AM 45.9°F7.7°C 20.5°F-6.4°C 36% Calm Calm -- 29.94 in1013.9 mb 0.00 in0.0 mm 0.00 in0.0 mm 0.00 in0.0 mm
08:40 AM 46.6°F8.1°C 21.1°F-6.1°C 36% Calm Calm -- 29.94 in1013.9 mb 0.00 in0.0 mm 0.00 in0.0 mm 0.00 in0.0 mm
08:45 AM 47.6°F8.7°C 19.9°F-6.7°C 33% 0.1 mph SW0.2 kmh SW 1.0 mph1.6 kmh 29.95 in1014.2 mb 0.00 in0.0 mm 0.00 in0.0 mm 0.00 in0.0 mm
08:50 AM 48.9°F9.4°C 19.6°F-6.9°C 31% 0.2 mph S0.3 kmh S 2.0 mph3.2 kmh 29.95 in1014.2 mb 0.00 in0.0 mm 0.00 in0.0 mm 0.00 in0.0 mm
08:55 AM 49.9°F9.9°C 19.7°F-6.8°C 30% 0.3 mph SSE0.5 kmh SSE 2.0 mph3.2 kmh 29.95 in1014.2 mb 0.00 in0.0 mm 0.00 in0.0 mm 0.00 in0.0 mm
09:00 AM 50.6°F10.3°C 19.5°F-6.9°C 29% 0.4 mph SSE0.6 kmh SSE 2.0 mph3.2 kmh 29.95 in1014.2 mb 0.00 in0.0 mm 0.00 in0.0 mm 0.00 in0.0 mm
09:05 AM 51.3°F10.7°C 20.1°F-6.6°C 29% 0.3 mph S0.5 kmh S 2.0 mph3.2 kmh 29.95 in1014.2 mb 0.00 in0.0 mm 0.00 in0.0 mm 0.00 in0.0 mm
09:10 AM 51.8°F11.0°C 19.7°F-6.8°C 28% 0.4 mph S0.6 kmh S 2.0 mph3.2 kmh 29.96 in1014.6 mb 0.00 in0.0 mm 0.00 in0.0 mm 0.00 in0.0 mm
09:15 AM 52.4°F11.3°C 20.3°F-6.5°C 28% 0.5 mph S0.8 kmh S 2.0 mph3.2 kmh 29.96 in1014.6 mb 0.00 in0.0 mm 0.00 in0.0 mm 0.00 in0.0 mm
09:20 AM 53.0°F11.7°C 20.8°F-6.2°C 28% 0.2 mph SSE0.3 kmh SSE 2.0 mph3.2 kmh 29.96 in1014.6 mb 0.00 in0.0 mm 0.00 in0.0 mm 0.00 in0.0 mm
09:25 AM 53.6°F12.0°C 20.4°F-6.4°C 27% 0.7 mph SSW1.1 kmh SSW 3.0 mph4.8 kmh 29.96 in1014.6 mb 0.00 in0.0 mm 0.00 in0.0 mm 0.00 in0.0 mm
09:30 AM 54.2°F12.3°C 19.2°F-7.1°C 25% 0.9 mph SSE1.4 kmh SSE 3.0 mph4.8 kmh 29.96 in1014.6 mb 0.00 in0.0 mm 0.00 in0.0 mm 0.00 in0.0 mm
09:35 AM 54.9°F12.7°C 19.8°F-6.8°C 25% 0.9 mph SE1.4 kmh SE 3.0 mph4.8 kmh 29.96 in1014.6 mb 0.00 in0.0 mm 0.00 in0.0 mm 0.00 in0.0 mm
09:40 AM 55.4°F13.0°C 19.2°F-7.1°C 24% 1.2 mph SSE1.9 kmh SSE 3.0 mph4.8 kmh 29.95 in1014.2 mb 0.00 in0.0 mm 0.00 in0.0 mm 0.00 in0.0 mm
09:45 AM 55.9°F13.3°C 20.6°F-6.3°C 25% 0.6 mph SSE1.0 kmh SSE 3.0 mph4.8 kmh 29.95 in1014.2 mb 0.00 in0.0 mm 0.00 in0.0 mm 0.00 in0.0 mm
09:50 AM 56.2°F13.4°C 19.9°F-6.7°C 24% 0.8 mph SE1.3 kmh SE 3.0 mph4.8 kmh 29.96 in1014.6 mb 0.00 in0.0 mm 0.00 in0.0 mm 0.00 in0.0 mm
09:55 AM 56.6°F13.7°C 19.2°F-7.1°C 23% 0.7 mph SE1.1 kmh SE 2.0 mph3.2 kmh 29.96 in1014.6 mb 0.00 in0.0 mm 0.00 in0.0 mm 0.00 in0.0 mm
10:00 AM 57.0°F13.9°C 20.6°F-6.3°C 24% 0.3 mph SE0.5 kmh SE 2.0 mph3.2 kmh 29.96 in1014.6 mb 0.00 in0.0 mm 0.00 in0.0 mm 0.00 in0.0 mm
10:05 AM 57.6°F14.2°C 20.1°F-6.6°C 23% 0.2 mph S0.3 kmh S 2.0 mph3.2 kmh 29.96 in1014.6 mb 0.00 in0.0 mm 0.00 in0.0 mm 0.00 in0.0 mm
10:10 AM 58.3°F14.6°C 20.7°F-6.3°C 23% 0.5 mph S0.8 kmh S 2.0 mph3.2 kmh 29.97 in1014.9 mb 0.00 in0.0 mm 0.00 in0.0 mm 0.00 in0.0 mm
10:15 AM 59.1°F15.1°C 20.3°F-6.5°C 22% 1.1 mph SSW1.8 kmh SSW 3.0 mph4.8 kmh 29.97 in1014.9 mb 0.00 in0.0 mm 0.00 in0.0 mm 0.00 in0.0 mm
10:20 AM 59.6°F15.3°C 21.8°F-5.7°C 23% 1.0 mph SW1.6 kmh SW 3.0 mph4.8 kmh 29.97 in1014.9 mb 0.00 in0.0 mm 0.00 in0.0 mm 0.00 in0.0 mm
10:25 AM 60.1°F15.6°C 21.1°F-6.1°C 22% 0.8 mph SSW1.3 kmh SSW 3.0 mph4.8 kmh 29.97 in1014.9 mb 0.00 in0.0 mm 0.00 in0.0 mm 0.00 in0.0 mm
10:30 AM 60.4°F15.8°C 22.4°F-5.3°C 23% 1.0 mph SSW1.6 kmh SSW 3.0 mph4.8 kmh 29.98 in1015.2 mb 0.00 in0.0 mm 0.00 in0.0 mm 0.00 in0.0 mm
10:35 AM 60.9°F16.1°C 21.8°F-5.7°C 22% 1.0 mph SSW1.6 kmh SSW 3.0 mph4.8 kmh 29.97 in1014.9 mb 0.00 in0.0 mm 0.00 in0.0 mm 0.00 in0.0 mm
10:40 AM 61.3°F16.3°C 22.1°F-5.5°C 22% 1.2 mph SSW1.9 kmh SSW 3.0 mph4.8 kmh 29.98 in1015.2 mb 0.00 in0.0 mm 0.00 in0.0 mm 0.00 in0.0 mm
10:45 AM 61.6°F16.4°C 22.4°F-5.3°C 22% 0.7 mph SW1.1 kmh SW 4.0 mph6.4 kmh 29.97 in1014.9 mb 0.00 in0.0 mm 0.00 in0.0 mm 0.00 in0.0 mm
10:50 AM 62.0°F16.7°C 21.6°F-5.8°C 21% 0.7 mph SSW1.1 kmh SSW 4.0 mph6.4 kmh 29.98 in1015.2 mb 0.00 in0.0 mm 0.00 in0.0 mm 0.00 in0.0 mm
10:55 AM 62.5°F16.9°C 24.2°F-4.3°C 23% 0.7 mph SSW1.1 kmh SSW 3.0 mph4.8 kmh 29.98 in1015.2 mb 0.00 in0.0 mm 0.00 in0.0 mm 0.00 in0.0 mm
11:00 AM 62.9°F17.2°C 24.5°F-4.2°C 23% 0.9 mph S1.4 kmh S 3.0 mph4.8 kmh 29.97 in1014.9 mb 0.00 in0.0 mm 0.00 in0.0 mm 0.00 in0.0 mm
11:05 AM 63.1°F17.3°C 23.6°F-4.7°C 22% 1.1 mph SW1.8 kmh SW 4.0 mph6.4 kmh 29.97 in1014.9 mb 0.00 in0.0 mm 0.00 in0.0 mm 0.00 in0.0 mm
11:10 AM 63.6°F17.6°C 25.1°F-3.8°C 23% 0.8 mph SSW1.3 kmh SSW 4.0 mph6.4 kmh 29.97 in1014.9 mb 0.00 in0.0 mm 0.00 in0.0 mm 0.00 in0.0 mm
11:15 AM 64.0°F17.8°C 25.5°F-3.6°C 23% 1.3 mph SW2.1 kmh SW 5.0 mph8.0 kmh 29.97 in1014.9 mb 0.00 in0.0 mm 0.00 in0.0 mm 0.00 in0.0 mm
11:20 AM 64.3°F17.9°C 25.7°F-3.5°C 23% 0.4 mph SSW0.6 kmh SSW 5.0 mph8.0 kmh 29.97 in1014.9 mb 0.00 in0.0 mm 0.00 in0.0 mm 0.00 in0.0 mm
11:25 AM 64.4°F18.0°C 22.5°F-5.3°C 20% 1.2 mph S1.9 kmh S 3.0 mph4.8 kmh 29.97 in1014.9 mb 0.00 in0.0 mm 0.00 in0.0 mm 0.00 in0.0 mm
11:30 AM 64.7°F18.2°C 23.9°F-4.5°C 21% 0.4 mph S0.6 kmh S 3.0 mph4.8 kmh 29.96 in1014.6 mb 0.00 in0.0 mm 0.00 in0.0 mm 0.00 in0.0 mm
11:35 AM 64.8°F18.2°C 25.1°F-3.8°C 22% 0.9 mph SSW1.4 kmh SSW 3.0 mph4.8 kmh 29.96 in1014.6 mb 0.00 in0.0 mm 0.00 in0.0 mm 0.00 in0.0 mm
11:40 AM 65.0°F18.3°C 24.1°F-4.4°C 21% 0.2 mph SE0.3 kmh SE 3.0 mph4.8 kmh 29.96 in1014.6 mb 0.00 in0.0 mm 0.00 in0.0 mm 0.00 in0.0 mm
11:45 AM 65.5°F18.6°C 24.5°F-4.2°C 21% 0.4 mph SSE0.6 kmh SSE 2.0 mph3.2 kmh 29.96 in1014.6 mb 0.00 in0.0 mm 0.00 in0.0 mm 0.00 in0.0 mm
11:50 AM 66.1°F18.9°C 23.9°F-4.5°C 20% 0.8 mph S1.3 kmh S 2.0 mph3.2 kmh 29.96 in1014.6 mb 0.00 in0.0 mm 0.00 in0.0 mm 0.00 in0.0 mm
11:55 AM 66.3°F19.1°C 22.8°F-5.1°C 19% 0.7 mph S1.1 kmh S 2.0 mph3.2 kmh 29.95 in1014.2 mb 0.00 in0.0 mm 0.00 in0.0 mm 0.00 in0.0 mm
12:00 PM 66.6°F19.2°C 20.4°F-6.4°C 17% 0.3 mph S0.5 kmh S 2.0 mph3.2 kmh 29.95 in1014.2 mb 0.00 in0.0 mm 0.00 in0.0 mm 0.00 in0.0 mm
12:05 PM 66.4°F19.1°C 21.6°F-5.8°C 18% 1.1 mph S1.8 kmh S 3.0 mph4.8 kmh 29.95 in1014.2 mb 0.00 in0.0 mm 0.00 in0.0 mm 0.00 in0.0 mm
12:10 PM 66.6°F19.2°C 21.8°F-5.7°C 18% 1.1 mph SW1.8 kmh SW 5.0 mph8.0 kmh 29.95 in1014.2 mb 0.00 in0.0 mm 0.00 in0.0 mm 0.00 in0.0 mm
12:15 PM 66.6°F19.2°C 21.8°F-5.7°C 18% 1.7 mph SSW2.7 kmh SSW 5.0 mph8.0 kmh 29.95 in1014.2 mb 0.00 in0.0 mm 0.00 in0.0 mm 0.00 in0.0 mm
12:20 PM 67.1°F19.5°C 22.2°F-5.4°C 18% 0.9 mph S1.4 kmh S 4.0 mph6.4 kmh 29.94 in1013.9 mb 0.00 in0.0 mm 0.00 in0.0 mm 0.00 in0.0 mm
12:25 PM 67.3°F19.6°C 21.0°F-6.1°C 17% 1.5 mph S2.4 kmh S 6.0 mph9.7 kmh 29.94 in1013.9 mb 0.00 in0.0 mm 0.00 in0.0 mm 0.00 in0.0 mm
12:30 PM 67.0°F19.4°C 22.1°F-5.5°C 18% 1.7 mph S2.7 kmh S 6.0 mph9.7 kmh 29.94 in1013.9 mb 0.00 in0.0 mm 0.00 in0.0 mm 0.00 in0.0 mm
12:35 PM 67.2°F19.6°C 20.9°F-6.2°C 17% 1.6 mph S2.6 kmh S 6.0 mph9.7 kmh 29.93 in1013.5 mb 0.00 in0.0 mm 0.00 in0.0 mm 0.00 in0.0 mm
12:40 PM 67.2°F19.6°C 20.9°F-6.2°C 17% 2.3 mph S3.7 kmh S 5.0 mph8.0 kmh 29.93 in1013.5 mb 0.00 in0.0 mm 0.00 in0.0 mm 0.00 in0.0 mm
12:45 PM 67.3°F19.6°C 22.3°F-5.4°C 18% 2.0 mph S3.2 kmh S 5.0 mph8.0 kmh 29.93 in1013.5 mb 0.00 in0.0 mm 0.00 in0.0 mm 0.00 in0.0 mm
12:50 PM 67.5°F19.7°C 21.2°F-6.0°C 17% 1.4 mph S2.3 kmh S 5.0 mph8.0 kmh 29.93 in1013.5 mb 0.00 in0.0 mm 0.00 in0.0 mm 0.00 in0.0 mm
12:55 PM 67.8°F19.9°C 21.4°F-5.9°C 17% 1.5 mph S2.4 kmh S 6.0 mph9.7 kmh 29.93 in1013.5 mb 0.00 in0.0 mm 0.00 in0.0 mm 0.00 in0.0 mm
01:00 PM 67.7°F19.8°C 22.7°F-5.2°C 18% 3.1 mph S5.0 kmh S 8.0 mph12.9 kmh 29.93 in1013.5 mb 0.00 in0.0 mm 0.00 in0.0 mm 0.00 in0.0 mm
01:05 PM 67.4°F19.7°C 23.7°F-4.6°C 19% 2.4 mph SSW3.9 kmh SSW 8.0 mph12.9 kmh 29.93 in1013.5 mb 0.00 in0.0 mm 0.00 in0.0 mm 0.00 in0.0 mm
01:10 PM 67.3°F19.6°C 21.0°F-6.1°C 17% 2.1 mph S3.4 kmh S 7.0 mph11.3 kmh 29.93 in1013.5 mb 0.00 in0.0 mm 0.00 in0.0 mm 0.00 in0.0 mm
01:15 PM 67.3°F19.6°C 22.3°F-5.4°C 18% 1.6 mph S2.6 kmh S 5.0 mph8.0 kmh 29.93 in1013.5 mb 0.00 in0.0 mm 0.00 in0.0 mm 0.00 in0.0 mm
01:20 PM 67.3°F19.6°C 22.3°F-5.4°C 18% 1.5 mph S2.4 kmh S 5.0 mph8.0 kmh 29.92 in1013.2 mb 0.00 in0.0 mm 0.00 in0.0 mm 0.00 in0.0 mm
01:25 PM 67.5°F19.7°C 23.8°F-4.6°C 19% 1.6 mph S2.6 kmh S 5.0 mph8.0 kmh 29.92 in1013.2 mb 0.00 in0.0 mm 0.00 in0.0 mm 0.00 in0.0 mm
01:30 PM 67.3°F19.6°C 22.3°F-5.4°C 18% 1.2 mph SSE1.9 kmh SSE 5.0 mph8.0 kmh 29.91 in1012.9 mb 0.00 in0.0 mm 0.00 in0.0 mm 0.00 in0.0 mm
01:35 PM 67.8°F19.9°C 22.8°F-5.1°C 18% 1.8 mph SSW2.9 kmh SSW 7.0 mph11.3 kmh 29.91 in1012.9 mb 0.00 in0.0 mm 0.00 in0.0 mm 0.00 in0.0 mm
01:40 PM 68.2°F20.1°C 23.1°F-4.9°C 18% 1.7 mph S2.7 kmh S 7.0 mph11.3 kmh 29.91 in1012.9 mb 0.00 in0.0 mm 0.00 in0.0 mm 0.00 in0.0 mm
01:45 PM 68.3°F20.2°C 21.8°F-5.7°C 17% 1.4 mph S2.3 kmh S 5.0 mph8.0 kmh 29.91 in1012.9 mb 0.00 in0.0 mm 0.00 in0.0 mm 0.00 in0.0 mm
01:50 PM 68.4°F20.2°C 21.9°F-5.6°C 17% 1.2 mph S1.9 kmh S 5.0 mph8.0 kmh 29.91 in1012.9 mb 0.00 in0.0 mm 0.00 in0.0 mm 0.00 in0.0 mm
01:55 PM 68.4°F20.2°C 23.2°F-4.9°C 18% 2.5 mph SSW4.0 kmh SSW 5.0 mph8.0 kmh 29.91 in1012.9 mb 0.00 in0.0 mm 0.00 in0.0 mm 0.00 in0.0 mm
02:00 PM 68.3°F20.2°C 23.2°F-4.9°C 18% 1.3 mph SSW2.1 kmh SSW 5.0 mph8.0 kmh 29.90 in1012.5 mb 0.00 in0.0 mm 0.00 in0.0 mm 0.00 in0.0 mm
02:05 PM 68.1°F20.1°C 23.0°F-5.0°C 18% 2.5 mph S4.0 kmh S 6.0 mph9.7 kmh 29.90 in1012.5 mb 0.00 in0.0 mm 0.00 in0.0 mm 0.00 in0.0 mm
02:10 PM 67.4°F19.7°C 22.4°F-5.3°C 18% 1.5 mph S2.4 kmh S 6.0 mph9.7 kmh 29.89 in1012.2 mb 0.00 in0.0 mm 0.00 in0.0 mm 0.00 in0.0 mm
02:15 PM 67.7°F19.8°C 22.7°F-5.2°C 18% 1.6 mph S2.6 kmh S 4.0 mph6.4 kmh 29.89 in1012.2 mb 0.00 in0.0 mm 0.00 in0.0 mm 0.00 in0.0 mm
02:20 PM 68.1°F20.1°C 23.0°F-5.0°C 18% 2.2 mph SSW3.5 kmh SSW 6.0 mph9.7 kmh 29.89 in1012.2 mb 0.00 in0.0 mm 0.00 in0.0 mm 0.00 in0.0 mm
02:25 PM 68.0°F20.0°C 22.9°F-5.1°C 18% 2.6 mph SSW4.2 kmh SSW 6.0 mph9.7 kmh 29.89 in1012.2 mb 0.00 in0.0 mm 0.00 in0.0 mm 0.00 in0.0 mm
02:30 PM 67.9°F19.9°C 22.8°F-5.1°C 18% 2.4 mph S3.9 kmh S 6.0 mph9.7 kmh 29.89 in1012.2 mb 0.00 in0.0 mm 0.00 in0.0 mm 0.00 in0.0 mm
02:35 PM 67.7°F19.8°C 22.7°F-5.2°C 18% 2.5 mph S4.0 kmh S 7.0 mph11.3 kmh 29.88 in1011.9 mb 0.00 in0.0 mm 0.00 in0.0 mm 0.00 in0.0 mm
02:40 PM 67.4°F19.7°C 23.7°F-4.6°C 19% 1.6 mph S2.6 kmh S 6.0 mph9.7 kmh 29.88 in1011.9 mb 0.00 in0.0 mm 0.00 in0.0 mm 0.00 in0.0 mm
02:45 PM 67.8°F19.9°C 24.0°F-4.4°C 19% 2.5 mph S4.0 kmh S 6.0 mph9.7 kmh 29.88 in1011.9 mb 0.00 in0.0 mm 0.00 in0.0 mm 0.00 in0.0 mm
02:50 PM 67.8°F19.9°C 25.3°F-3.7°C 20% 1.7 mph S2.7 kmh S 6.0 mph9.7 kmh 29.88 in1011.9 mb 0.00 in0.0 mm 0.00 in0.0 mm 0.00 in0.0 mm
02:55 PM 68.1°F20.1°C 24.3°F-4.3°C 19% 1.7 mph S2.7 kmh S 4.0 mph6.4 kmh 29.88 in1011.9 mb 0.00 in0.0 mm 0.00 in0.0 mm 0.00 in0.0 mm
03:00 PM 67.6°F19.8°C 23.9°F-4.5°C 19% 1.9 mph S3.1 kmh S 6.0 mph9.7 kmh 29.87 in1011.5 mb 0.00 in0.0 mm 0.00 in0.0 mm 0.00 in0.0 mm
03:05 PM 67.7°F19.8°C 24.0°F-4.4°C 19% 1.4 mph SSW2.3 kmh SSW 6.0 mph9.7 kmh 29.87 in1011.5 mb 0.00 in0.0 mm 0.00 in0.0 mm 0.00 in0.0 mm
03:10 PM 68.1°F20.1°C 25.5°F-3.6°C 20% 2.0 mph S3.2 kmh S 5.0 mph8.0 kmh 29.87 in1011.5 mb 0.00 in0.0 mm 0.00 in0.0 mm 0.00 in0.0 mm
03:15 PM 68.1°F20.1°C 27.8°F-2.3°C 22% 1.0 mph S1.6 kmh S 5.0 mph8.0 kmh 29.86 in1011.2 mb 0.00 in0.0 mm 0.00 in0.0 mm 0.00 in0.0 mm
03:20 PM 68.8°F20.4°C 24.9°F-3.9°C 19% 0.8 mph S1.3 kmh S 4.0 mph6.4 kmh 29.86 in1011.2 mb 0.00 in0.0 mm 0.00 in0.0 mm 0.00 in0.0 mm
03:25 PM 69.1°F20.6°C 26.3°F-3.2°C 20% 0.6 mph S1.0 kmh S 3.0 mph4.8 kmh 29.85 in1010.8 mb 0.00 in0.0 mm 0.00 in0.0 mm 0.00 in0.0 mm
03:30 PM 69.2°F20.7°C 25.2°F-3.8°C 19% 0.6 mph ESE1.0 kmh ESE 3.0 mph4.8 kmh 29.85 in1010.8 mb 0.00 in0.0 mm 0.00 in0.0 mm 0.00 in0.0 mm
03:35 PM 69.1°F20.6°C 26.3°F-3.2°C 20% 0.6 mph SSW1.0 kmh SSW 3.0 mph4.8 kmh 29.86 in1011.2 mb 0.00 in0.0 mm 0.00 in0.0 mm 0.00 in0.0 mm
03:40 PM 68.9°F20.5°C 26.2°F-3.2°C 20% 2.0 mph SSW3.2 kmh SSW 5.0 mph8.0 kmh 29.86 in1011.2 mb 0.00 in0.0 mm 0.00 in0.0 mm 0.00 in0.0 mm
03:45 PM 68.6°F20.3°C 27.1°F-2.7°C 21% 2.5 mph SW4.0 kmh SW 9.0 mph14.5 kmh 29.86 in1011.2 mb 0.00 in0.0 mm 0.00 in0.0 mm 0.00 in0.0 mm
03:50 PM 67.6°F19.8°C 26.3°F-3.2°C 21% 1.7 mph S2.7 kmh S 9.0 mph14.5 kmh 29.86 in1011.2 mb 0.00 in0.0 mm 0.00 in0.0 mm 0.00 in0.0 mm
03:55 PM 66.4°F19.1°C 26.4°F-3.1°C 22% 2.0 mph SSW3.2 kmh SSW 5.0 mph8.0 kmh 29.86 in1011.2 mb 0.00 in0.0 mm 0.00 in0.0 mm 0.00 in0.0 mm
04:00 PM 65.7°F18.7°C 26.9°F-2.8°C 23% 1.3 mph SSW2.1 kmh SSW 5.0 mph8.0 kmh 29.86 in1011.2 mb 0.00 in0.0 mm 0.00 in0.0 mm 0.00 in0.0 mm
04:05 PM 65.4°F18.6°C 26.6°F-3.0°C 23% 0.9 mph SSW1.4 kmh SSW 4.0 mph6.4 kmh 29.85 in1010.8 mb 0.00 in0.0 mm 0.00 in0.0 mm 0.00 in0.0 mm
04:10 PM 65.4°F18.6°C 26.6°F-3.0°C 23% 0.8 mph S1.3 kmh S 3.0 mph4.8 kmh 29.85 in1010.8 mb 0.00 in0.0 mm 0.00 in0.0 mm 0.00 in0.0 mm
04:15 PM 65.6°F18.7°C 26.8°F-2.9°C 23% 1.0 mph SW1.6 kmh SW 4.0 mph6.4 kmh 29.85 in1010.8 mb 0.00 in0.0 mm 0.00 in0.0 mm 0.00 in0.0 mm
04:20 PM 65.3°F18.5°C 27.6°F-2.4°C 24% 1.2 mph SSW1.9 kmh SSW 5.0 mph8.0 kmh 29.85 in1010.8 mb 0.00 in0.0 mm 0.00 in0.0 mm 0.00 in0.0 mm
04:25 PM 64.9°F18.3°C 31.0°F-0.6°C 28% 2.9 mph SW4.7 kmh SW 6.0 mph9.7 kmh 29.85 in1010.8 mb 0.00 in0.0 mm 0.00 in0.0 mm 0.00 in0.0 mm
04:30 PM 64.3°F17.9°C 32.2°F0.1°C 30% 2.7 mph SSW4.3 kmh SSW 6.0 mph9.7 kmh 29.85 in1010.8 mb 0.00 in0.0 mm 0.00 in0.0 mm 0.00 in0.0 mm
04:35 PM 63.8°F17.7°C 31.8°F-0.1°C 30% 2.2 mph S3.5 kmh S 6.0 mph9.7 kmh 29.86 in1011.2 mb 0.00 in0.0 mm 0.00 in0.0 mm 0.00 in0.0 mm
04:40 PM 63.3°F17.4°C 33.7°F0.9°C 33% 2.6 mph S4.2 kmh S 9.0 mph14.5 kmh 29.86 in1011.2 mb 0.00 in0.0 mm 0.00 in0.0 mm 0.00 in0.0 mm
04:45 PM 62.6°F17.0°C 34.6°F1.4°C 35% 3.6 mph SW5.8 kmh SW 10.0 mph16.1 kmh 29.87 in1011.5 mb 0.00 in0.0 mm 0.00 in0.0 mm 0.00 in0.0 mm
04:50 PM 62.2°F16.8°C 34.9°F1.6°C 36% 3.4 mph SSW5.5 kmh SSW 10.0 mph16.1 kmh 29.87 in1011.5 mb 0.00 in0.0 mm 0.00 in0.0 mm 0.00 in0.0 mm
04:55 PM 61.9°F16.6°C 36.0°F2.2°C 38% 2.9 mph SSW4.7 kmh SSW 10.0 mph16.1 kmh 29.88 in1011.9 mb 0.00 in0.0 mm 0.00 in0.0 mm 0.00 in0.0 mm
05:00 PM 61.6°F16.4°C 36.4°F2.4°C 39% 4.5 mph S7.2 kmh S 7.0 mph11.3 kmh 29.89 in1012.2 mb 0.00 in0.0 mm 0.00 in0.0 mm 0.00 in0.0 mm
05:05 PM 60.3°F15.7°C 40.5°F4.7°C 48% 6.9 mph SSW11.1 kmh SSW 16.0 mph25.7 kmh 29.90 in1012.5 mb 0.00 in0.0 mm 0.00 in0.0 mm 0.00 in0.0 mm
05:10 PM 58.1°F14.5°C 42.0°F5.6°C 55% 6.6 mph SSW10.6 kmh SSW 16.0 mph25.7 kmh 29.91 in1012.9 mb 0.00 in0.0 mm 0.00 in0.0 mm 0.00 in0.0 mm
05:15 PM 56.9°F13.8°C 41.8°F5.4°C 57% 5.0 mph SSW8.0 kmh SSW 12.0 mph19.3 kmh 29.91 in1012.9 mb 0.00 in0.0 mm 0.00 in0.0 mm 0.00 in0.0 mm
05:20 PM 56.5°F13.6°C 42.3°F5.7°C 59% 4.4 mph SSW7.1 kmh SSW 13.0 mph20.9 kmh 29.92 in1013.2 mb 0.00 in0.0 mm 0.00 in0.0 mm 0.00 in0.0 mm
05:25 PM 55.9°F13.3°C 40.9°F4.9°C 57% 5.4 mph SSW8.7 kmh SSW 13.0 mph20.9 kmh 29.93 in1013.5 mb 0.00 in0.0 mm 0.00 in0.0 mm 0.00 in0.0 mm
05:30 PM 55.0°F12.8°C 43.5°F6.4°C 65% 4.5 mph SSW7.2 kmh SSW 13.0 mph20.9 kmh 29.93 in1013.5 mb 0.00 in0.0 mm 0.00 in0.0 mm 0.00 in0.0 mm
05:35 PM 53.8°F12.1°C 44.2°F6.8°C 70% 3.4 mph SSW5.5 kmh SSW 10.0 mph16.1 kmh 29.93 in1013.5 mb 0.01 in0.3 mm 0.12 in3.0 mm 0.01 in0.3 mm
05:40 PM 52.7°F11.5°C 45.0°F7.2°C 75% 2.5 mph SW4.0 kmh SW 8.0 mph12.9 kmh 29.94 in1013.9 mb 0.04 in1.0 mm 0.36 in9.1 mm 0.04 in1.0 mm
05:45 PM 52.0°F11.1°C 45.0°F7.2°C 77% 1.4 mph SW2.3 kmh SW 8.0 mph12.9 kmh 29.93 in1013.5 mb 0.05 in1.3 mm 0.12 in3.0 mm 0.05 in1.3 mm
05:50 PM 51.7°F10.9°C 45.4°F7.4°C 79% 0.8 mph SW1.3 kmh SW 4.0 mph6.4 kmh 29.94 in1013.9 mb 0.05 in1.3 mm 0.00 in0.0 mm 0.05 in1.3 mm
05:55 PM 51.5°F10.8°C 45.2°F7.3°C 79% 0.8 mph SW1.3 kmh SW 3.0 mph4.8 kmh 29.94 in1013.9 mb 0.06 in1.5 mm 0.12 in3.0 mm 0.06 in1.5 mm
06:00 PM 51.5°F10.8°C 45.5°F7.5°C 80% 0.4 mph WSW0.6 kmh WSW 4.0 mph6.4 kmh 29.94 in1013.9 mb 0.06 in1.5 mm 0.00 in0.0 mm 0.06 in1.5 mm
06:05 PM 51.4°F10.8°C 45.4°F7.4°C 80% 0.2 mph S0.3 kmh S 4.0 mph6.4 kmh 29.94 in1013.9 mb 0.06 in1.5 mm 0.00 in0.0 mm 0.06 in1.5 mm
06:10 PM 51.3°F10.7°C 45.7°F7.6°C 81% 0.1 mph SW0.2 kmh SW 1.0 mph1.6 kmh 29.94 in1013.9 mb 0.06 in1.5 mm 0.00 in0.0 mm 0.06 in1.5 mm
06:15 PM 51.2°F10.7°C 45.6°F7.6°C 81% 0.1 mph WSW0.2 kmh WSW 1.0 mph1.6 kmh 29.94 in1013.9 mb 0.06 in1.5 mm 0.00 in0.0 mm 0.06 in1.5 mm
06:20 PM 51.4°F10.8°C 46.1°F7.8°C 82% Calm Calm 1.0 mph1.6 kmh 29.95 in1014.2 mb 0.06 in1.5 mm 0.00 in0.0 mm 0.06 in1.5 mm
06:25 PM 51.4°F10.8°C 46.1°F7.8°C 82% 0.8 mph NW1.3 kmh NW 3.0 mph4.8 kmh 29.95 in1014.2 mb 0.07 in1.8 mm 0.12 in3.0 mm 0.07 in1.8 mm
06:30 PM 51.3°F10.7°C 46.0°F7.8°C 82% 0.5 mph NW0.8 kmh NW 4.0 mph6.4 kmh 29.96 in1014.6 mb 0.07 in1.8 mm 0.00 in0.0 mm 0.07 in1.8 mm
06:35 PM 51.2°F10.7°C 46.2°F7.9°C 83% 0.8 mph NW1.3 kmh NW 4.0 mph6.4 kmh 29.96 in1014.6 mb 0.06 in1.5 mm 0.00 in0.0 mm 0.07 in1.8 mm
06:40 PM 51.0°F10.6°C 46.0°F7.8°C 83% 1.0 mph NW1.6 kmh NW 3.0 mph4.8 kmh 29.96 in1014.6 mb 0.03 in0.8 mm 0.00 in0.0 mm 0.07 in1.8 mm
06:45 PM 50.8°F10.4°C 45.8°F7.7°C 83% 1.2 mph NW1.9 kmh NW 3.0 mph4.8 kmh 29.96 in1014.6 mb 0.03 in0.8 mm 0.00 in0.0 mm 0.08 in2.0 mm
06:50 PM 50.6°F10.3°C 45.9°F7.7°C 84% 0.6 mph N1.0 kmh N 2.0 mph3.2 kmh 29.96 in1014.6 mb 0.03 in0.8 mm 0.00 in0.0 mm 0.08 in2.0 mm
06:55 PM 50.4°F10.2°C 45.7°F7.6°C 84% 0.5 mph NE0.8 kmh NE 2.0 mph3.2 kmh 29.96 in1014.6 mb 0.03 in0.8 mm 0.00 in0.0 mm 0.09 in2.3 mm
07:00 PM 50.4°F10.2°C 46.1°F7.8°C 85% 0.5 mph NE0.8 kmh NE 3.0 mph4.8 kmh 29.96 in1014.6 mb 0.03 in0.8 mm 0.00 in0.0 mm 0.09 in2.3 mm
07:05 PM 50.3°F10.2°C 46.0°F7.8°C 85% 0.6 mph ENE1.0 kmh ENE 3.0 mph4.8 kmh 29.96 in1014.6 mb 0.04 in1.0 mm 0.12 in3.0 mm 0.10 in2.5 mm
07:10 PM 50.3°F10.2°C 46.0°F7.8°C 85% 0.2 mph E0.3 kmh E 2.0 mph3.2 kmh 29.97 in1014.9 mb 0.04 in1.0 mm 0.00 in0.0 mm 0.10 in2.5 mm
07:15 PM 50.1°F10.1°C 45.8°F7.7°C 85% 0.2 mph ESE0.3 kmh ESE 2.0 mph3.2 kmh 29.97 in1014.9 mb 0.04 in1.0 mm 0.00 in0.0 mm 0.10 in2.5 mm
07:20 PM 50.3°F10.2°C 46.3°F7.9°C 86% 1.2 mph NE1.9 kmh NE 3.0 mph4.8 kmh 29.97 in1014.9 mb 0.04 in1.0 mm 0.00 in0.0 mm 0.10 in2.5 mm
07:25 PM 50.3°F10.2°C 46.6°F8.1°C 87% 0.5 mph ENE0.8 kmh ENE 3.0 mph4.8 kmh 29.97 in1014.9 mb 0.03 in0.8 mm 0.00 in0.0 mm 0.10 in2.5 mm
07:30 PM 50.2°F10.1°C 46.5°F8.1°C 87% 0.2 mph NE0.3 kmh NE 3.0 mph4.8 kmh 29.97 in1014.9 mb 0.04 in1.0 mm 0.12 in3.0 mm 0.11 in2.8 mm
07:35 PM 50.1°F10.1°C 46.4°F8.0°C 87% Calm Calm 2.0 mph3.2 kmh 29.97 in1014.9 mb 0.04 in1.0 mm 0.00 in0.0 mm 0.11 in2.8 mm
07:40 PM 50.1°F10.1°C 46.4°F8.0°C 87% 0.2 mph ENE0.3 kmh ENE 2.0 mph3.2 kmh 29.97 in1014.9 mb 0.04 in1.0 mm 0.00 in0.0 mm 0.11 in2.8 mm
07:45 PM 50.2°F10.1°C 46.2°F7.9°C 86% 0.5 mph NE0.8 kmh NE 2.0 mph3.2 kmh 29.97 in1014.9 mb 0.03 in0.8 mm 0.00 in0.0 mm 0.11 in2.8 mm
07:50 PM 50.2°F10.1°C 46.2°F7.9°C 86% Calm Calm 2.0 mph3.2 kmh 29.97 in1014.9 mb 0.03 in0.8 mm 0.00 in0.0 mm 0.11 in2.8 mm
07:55 PM 50.1°F10.1°C 46.4°F8.0°C 87% Calm Calm 1.0 mph1.6 kmh 29.97 in1014.9 mb 0.02 in0.5 mm 0.00 in0.0 mm 0.11 in2.8 mm
08:00 PM 49.9°F9.9°C 46.2°F7.9°C 87% Calm Calm -- 29.97 in1014.9 mb 0.02 in0.5 mm 0.00 in0.0 mm 0.11 in2.8 mm
08:05 PM 49.8°F9.9°C 46.1°F7.8°C 87% Calm Calm -- 29.97 in1014.9 mb 0.01 in0.3 mm 0.00 in0.0 mm 0.11 in2.8 mm
08:10 PM 49.7°F9.8°C 46.3°F7.9°C 88% Calm Calm -- 29.97 in1014.9 mb 0.01 in0.3 mm 0.00 in0.0 mm 0.11 in2.8 mm
08:15 PM 49.5°F9.7°C 46.1°F7.8°C 88% Calm Calm -- 29.97 in1014.9 mb 0.01 in0.3 mm 0.00 in0.0 mm 0.11 in2.8 mm
08:20 PM 49.4°F9.7°C 46.0°F7.8°C 88% Calm Calm -- 29.98 in1015.2 mb 0.01 in0.3 mm 0.00 in0.0 mm 0.11 in2.8 mm
08:25 PM 49.3°F9.6°C 46.2°F7.9°C 89% Calm Calm -- 29.98 in1015.2 mb 0.01 in0.3 mm 0.00 in0.0 mm 0.11 in2.8 mm
08:30 PM 49.3°F9.6°C 46.2°F7.9°C 89% Calm Calm -- 29.98 in1015.2 mb 0.00 in0.0 mm 0.00 in0.0 mm 0.11 in2.8 mm
08:35 PM 49.3°F9.6°C 46.2°F7.9°C 89% Calm Calm -- 29.99 in1015.6 mb 0.00 in0.0 mm 0.00 in0.0 mm 0.11 in2.8 mm
08:40 PM 49.2°F9.6°C 46.1°F7.8°C 89% Calm Calm -- 29.98 in1015.2 mb 0.00 in0.0 mm 0.00 in0.0 mm 0.11 in2.8 mm
08:45 PM 49.2°F9.6°C 46.1°F7.8°C 89% Calm Calm -- 29.99 in1015.6 mb 0.00 in0.0 mm 0.00 in0.0 mm 0.11 in2.8 mm
08:50 PM 49.2°F9.6°C 46.1°F7.8°C 89% Calm Calm -- 29.99 in1015.6 mb 0.00 in0.0 mm 0.00 in0.0 mm 0.11 in2.8 mm
08:55 PM 49.4°F9.7°C 46.3°F7.9°C 89% 0.6 mph SSE1.0 kmh SSE 2.0 mph3.2 kmh 29.99 in1015.6 mb 0.00 in0.0 mm 0.00 in0.0 mm 0.11 in2.8 mm
09:00 PM 49.6°F9.8°C 46.2°F7.9°C 88% 0.4 mph SSW0.6 kmh SSW 3.0 mph4.8 kmh 29.99 in1015.6 mb 0.00 in0.0 mm 0.00 in0.0 mm 0.11 in2.8 mm
09:05 PM 49.7°F9.8°C 46.0°F7.8°C 87% 0.7 mph SW1.1 kmh SW 3.0 mph4.8 kmh 29.99 in1015.6 mb 0.00 in0.0 mm 0.00 in0.0 mm 0.11 in2.8 mm
09:10 PM 49.8°F9.9°C 46.4°F8.0°C 88% 0.5 mph SW0.8 kmh SW 4.0 mph6.4 kmh 29.99 in1015.6 mb 0.00 in0.0 mm 0.00 in0.0 mm 0.11 in2.8 mm
09:15 PM 49.7°F9.8°C 46.0°F7.8°C 87% 1.3 mph S2.1 kmh S 4.0 mph6.4 kmh 29.99 in1015.6 mb 0.02 in0.5 mm 0.24 in6.1 mm 0.13 in3.3 mm
09:20 PM 49.6°F9.8°C 45.6°F7.6°C 86% 1.9 mph S3.1 kmh S 5.0 mph8.0 kmh 29.99 in1015.6 mb 0.03 in0.8 mm 0.12 in3.0 mm 0.14 in3.6 mm
09:25 PM 49.3°F9.6°C 45.3°F7.4°C 86% 1.9 mph SSW3.1 kmh SSW 5.0 mph8.0 kmh 30.00 in1015.9 mb 0.03 in0.8 mm 0.00 in0.0 mm 0.14 in3.6 mm
09:30 PM 49.1°F9.5°C 45.4°F7.4°C 87% 2.1 mph SSW3.4 kmh SSW 5.0 mph8.0 kmh 29.99 in1015.6 mb 0.03 in0.8 mm 0.00 in0.0 mm 0.14 in3.6 mm
09:35 PM 48.9°F9.4°C 45.2°F7.3°C 87% 1.8 mph SSW2.9 kmh SSW 5.0 mph8.0 kmh 30.00 in1015.9 mb 0.04 in1.0 mm 0.12 in3.0 mm 0.15 in3.8 mm
09:40 PM 48.7°F9.3°C 45.3°F7.4°C 88% 0.8 mph SW1.3 kmh SW 5.0 mph8.0 kmh 30.00 in1015.9 mb 0.04 in1.0 mm 0.00 in0.0 mm 0.15 in3.8 mm
09:45 PM 48.6°F9.2°C 45.2°F7.3°C 88% 0.7 mph SSW1.1 kmh SSW 5.0 mph8.0 kmh 30.00 in1015.9 mb 0.04 in1.0 mm 0.00 in0.0 mm 0.15 in3.8 mm
09:50 PM 48.5°F9.2°C 45.1°F7.3°C 88% 0.2 mph SW0.3 kmh SW 5.0 mph8.0 kmh 30.00 in1015.9 mb 0.04 in1.0 mm 0.00 in0.0 mm 0.15 in3.8 mm
09:55 PM 48.4°F9.1°C 45.0°F7.2°C 88% 0.6 mph SSW1.0 kmh SSW 2.0 mph3.2 kmh 30.01 in1016.3 mb 0.04 in1.0 mm 0.00 in0.0 mm 0.15 in3.8 mm
10:00 PM 48.3°F9.1°C 44.6°F7.0°C 87% 1.3 mph SSW2.1 kmh SSW 4.0 mph6.4 kmh 30.01 in1016.3 mb 0.04 in1.0 mm 0.00 in0.0 mm 0.15 in3.8 mm
10:05 PM 48.2°F9.0°C 44.5°F6.9°C 87% 0.6 mph SSW1.0 kmh SSW 4.0 mph6.4 kmh 30.02 in1016.6 mb 0.04 in1.0 mm 0.00 in0.0 mm 0.15 in3.8 mm
10:10 PM 48.1°F8.9°C 44.4°F6.9°C 87% 0.2 mph S0.3 kmh S 4.0 mph6.4 kmh 30.02 in1016.6 mb 0.04 in1.0 mm 0.00 in0.0 mm 0.15 in3.8 mm
10:15 PM 48.0°F8.9°C 44.3°F6.8°C 87% 0.8 mph S1.3 kmh S 3.0 mph4.8 kmh 30.02 in1016.6 mb 0.02 in0.5 mm 0.00 in0.0 mm 0.15 in3.8 mm
10:20 PM 47.9°F8.8°C 44.2°F6.8°C 87% 1.2 mph SSW1.9 kmh SSW 4.0 mph6.4 kmh 30.02 in1016.6 mb 0.02 in0.5 mm 0.00 in0.0 mm 0.16 in4.1 mm
10:25 PM 47.7°F8.7°C 44.0°F6.7°C 87% 0.9 mph SSW1.4 kmh SSW 4.0 mph6.4 kmh 30.02 in1016.6 mb 0.03 in0.8 mm 0.12 in3.0 mm 0.17 in4.3 mm
10:30 PM 47.5°F8.6°C 44.1°F6.7°C 88% 1.1 mph SSW1.8 kmh SSW 4.0 mph6.4 kmh 30.02 in1016.6 mb 0.04 in1.0 mm 0.12 in3.0 mm 0.18 in4.6 mm
10:35 PM 47.3°F8.5°C 43.9°F6.6°C 88% 2.3 mph SSW3.7 kmh SSW 6.0 mph9.7 kmh 30.02 in1016.6 mb 0.05 in1.3 mm 0.12 in3.0 mm 0.20 in5.1 mm
10:40 PM 47.2°F8.4°C 44.1°F6.7°C 89% 1.9 mph SSW3.1 kmh SSW 6.0 mph9.7 kmh 30.02 in1016.6 mb 0.06 in1.5 mm 0.12 in3.0 mm 0.21 in5.3 mm
10:45 PM 47.1°F8.4°C 44.3°F6.8°C 90% 1.9 mph SSW3.1 kmh SSW 5.0 mph8.0 kmh 30.02 in1016.6 mb 0.07 in1.8 mm 0.12 in3.0 mm 0.22 in5.6 mm
10:50 PM 47.0°F8.3°C 44.2°F6.8°C 90% 2.8 mph S4.5 kmh S 6.0 mph9.7 kmh 30.03 in1016.9 mb 0.08 in2.0 mm 0.12 in3.0 mm 0.23 in5.8 mm
10:55 PM 46.9°F8.3°C 44.1°F6.7°C 90% 2.2 mph SSW3.5 kmh SSW 8.0 mph12.9 kmh 30.03 in1016.9 mb 0.09 in2.3 mm 0.12 in3.0 mm 0.24 in6.1 mm
11:00 PM 46.8°F8.2°C 44.0°F6.7°C 90% 2.6 mph S4.2 kmh S 8.0 mph12.9 kmh 30.03 in1016.9 mb 0.11 in2.8 mm 0.02 in0.5 mm 0.26 in6.6 mm
11:05 PM 46.6°F8.1°C 44.1°F6.7°C 91% 2.0 mph SSW3.2 kmh SSW 6.0 mph9.7 kmh 30.03 in1016.9 mb 0.12 in3.0 mm 0.12 in3.0 mm 0.27 in6.9 mm
11:10 PM 46.5°F8.1°C 44.0°F6.7°C 91% 1.1 mph SW1.8 kmh SW 4.0 mph6.4 kmh 30.02 in1016.6 mb 0.13 in3.3 mm 0.12 in3.0 mm 0.28 in7.1 mm
11:15 PM 46.4°F8.0°C 43.9°F6.6°C 91% 0.7 mph SW1.1 kmh SW 4.0 mph6.4 kmh 30.01 in1016.3 mb 0.14 in3.6 mm 0.12 in3.0 mm 0.29 in7.4 mm
11:20 PM 46.3°F7.9°C 43.8°F6.6°C 91% 0.8 mph SE1.3 kmh SE 4.0 mph6.4 kmh 30.02 in1016.6 mb 0.14 in3.6 mm 0.00 in0.0 mm 0.30 in7.6 mm
11:25 PM 46.4°F8.0°C 43.9°F6.6°C 91% 0.9 mph E1.4 kmh E 4.0 mph6.4 kmh 30.03 in1016.9 mb 0.14 in3.6 mm 0.00 in0.0 mm 0.31 in7.9 mm
11:30 PM 46.3°F7.9°C 44.1°F6.7°C 92% 0.5 mph SW0.8 kmh SW 3.0 mph4.8 kmh 30.04 in1017.3 mb 0.13 in3.3 mm 0.00 in0.0 mm 0.31 in7.9 mm
11:35 PM 46.4°F8.0°C 44.2°F6.8°C 92% 0.5 mph SSW0.8 kmh SSW 2.0 mph3.2 kmh 30.04 in1017.3 mb 0.12 in3.0 mm 0.00 in0.0 mm 0.32 in8.1 mm
11:40 PM 46.2°F7.9°C 43.7°F6.5°C 91% 0.2 mph W0.3 kmh W 2.0 mph3.2 kmh 30.03 in1016.9 mb 0.12 in3.0 mm 0.00 in0.0 mm 0.33 in8.4 mm
11:45 PM 45.8°F7.7°C 43.0°F6.1°C 90% 0.4 mph SE0.6 kmh SE 2.0 mph3.2 kmh 30.03 in1016.9 mb 0.11 in2.8 mm 0.00 in0.0 mm 0.33 in8.4 mm
11:50 PM 45.6°F7.6°C 42.8°F6.0°C 90% 0.1 mph NW0.2 kmh NW 2.0 mph3.2 kmh 30.03 in1016.9 mb 0.11 in2.8 mm 0.00 in0.0 mm 0.34 in8.6 mm
11:55 PM 45.5°F7.5°C 43.0°F6.1°C 91% 0.2 mph SW0.3 kmh SW 2.0 mph3.2 kmh 30.04 in1017.3 mb 0.10 in2.5 mm 0.00 in0.0 mm 0.34 in8.6 mm